Flight Track Log - Related Links

Times and Time Zones

All times are in EDT time to prevent confusion due to time zone crossing. See the DAL5258 flight status page for this flight to view local times or setup timezone preferences in your user account.

Time Position Orientation Groundspeed Altitude Reporting Facility
EDT Latitude Longitude Course Direction KTS MPH feet Rate Location/Type
Thu 07:30:32 PM 43.1028 -89.3308 135° Southeast 155 178 2,900  Level Chicago Center
Thu 07:31:34 PM 43.0625 -89.2767 135° Southeast 196 226 5,000 2,903 Climbing Chicago Center
Thu 07:32:36 PM 43.0247 -89.1653 115° Southeast 267 307 8,900 2,976 Climbing Chicago Center
Thu 07:33:39 PM 43.0058 -89.0564 103° East 291 335 11,200 1,680 Climbing Chicago Center
Thu 07:34:41 PM 42.9850 -88.9308 103° East 327 376 12,400 1,548 Climbing Chicago Center
Thu 07:35:43 PM 42.9606 -88.7972 104° East 355 409 14,400 1,742 Climbing Chicago Center
Thu 07:36:45 PM 42.9386 -88.6633 103° East 362 417 16,000 1,597 Climbing Chicago Center
Thu 07:37:47 PM 42.9086 -88.4936 104° East 379 436 17,700 1,452 Climbing Chicago Center
Thu 07:38:49 PM 42.8836 -88.3456 103° East 397 457 19,000 1,355 Climbing Chicago Center
Thu 07:39:51 PM 42.8575 -88.1986 104° East 401 461 20,500 1,355 Climbing Chicago Center
Thu 07:40:53 PM 42.8311 -88.0481 103° East 410 472 21,800 1,161 Climbing Chicago Center
Thu 07:41:55 PM 42.8031 -87.8944 104° East 417 480 22,900 1,104 Climbing Chicago Center
Thu 07:42:58 PM 42.7678 -87.7039 104° East 433 498 24,100 1,056 Climbing Chicago Center
Thu 07:44:00 PM 42.7392 -87.5403 103° East 445 512 25,100 1,065 Climbing Chicago Center
Thu 07:45:02 PM 42.7064 -87.3653 104° East 455 524 26,300 1,113 Climbing Chicago Center
Thu 07:46:04 PM 42.6761 -87.1986 104° East 457 526 27,400 968 Climbing Chicago Center
Thu 07:47:06 PM 42.6442 -87.0306 104° East 462 532 28,300 823 Climbing Chicago Center
Thu 07:48:08 PM 42.6114 -86.8603 105° East 469 540 29,100 774 Climbing Chicago Center
Thu 07:49:10 PM 42.5786 -86.6869 104° East 475 547 29,900 968 Climbing Chicago Center
Thu 07:50:12 PM 42.5389 -86.4800 105° East 476 548 31,100 1,113 Climbing Chicago Center
Thu 07:51:14 PM 42.5053 -86.3106 105° East 471 542 32,200 919 Climbing Chicago Center
Thu 07:52:16 PM 42.4644 -86.1458 109° East 470 541 33,000 384 Climbing Chicago Center
Thu 07:53:19 PM 42.3761 -86.0083 131° Southeast 485 558 33,000  Level Chicago Center
Thu 07:54:21 PM 42.2819 -85.8694 132° Southeast 501 577 33,000  Level Chicago Center
Thu 07:55:23 PM 42.1675 -85.7053 133° Southeast 504 580 33,000  Level Chicago Center
Thu 07:56:25 PM 42.0781 -85.5664 131° Southeast 496 571 33,000  Level Chicago Center
Thu 07:57:27 PM 42.0297 -85.3858 110° East 495 570 33,000  Level Chicago Center
Thu 07:58:29 PM 42.0292 -85.2189 90° East 486 559 33,000  Level Chicago Center
Thu 07:59:31 PM 42.0317 -85.0419 89° East 479 551 33,000  Level Chicago Center
Thu 08:00:33 PM 42.0347 -84.8678 89° East 472 543 33,000  Level Chicago Center
Thu 08:01:35 PM 42.0378 -84.6553 89° East 475 547 33,000  Level Chicago Center
Thu 08:02:37 PM 42.0400 -84.4708 89° East 489 563 33,000  Level Chicago Center
Thu 08:03:39 PM 42.0425 -84.2947 89° East 492 566 33,000  Level Chicago Center
Thu 08:04:42 PM 42.0442 -84.1050 89° East 492 566 33,000  Level Chicago Center
Thu 08:05:44 PM 42.0458 -83.9211 89° East 492 566 33,000  Level Chicago Center
Thu 08:06:46 PM 42.0483 -83.7039 89° East 488 562 33,000  Level Chicago Center
Thu 08:07:58 PM 42.0447 -83.5047 91° East 487 560 33,000  Level Cleveland Center
Thu 08:09:00 PM 42.0169 -83.3217 101° East 495 570 33,000  Level Cleveland Center
Thu 08:10:03 PM 41.9714 -83.1231 107° East 503 579 33,000  Level Cleveland Center
Thu 08:11:05 PM 41.9336 -82.9506 106° East 486 559 33,000  Level Cleveland Center
Thu 08:12:07 PM 41.8978 -82.7897 107° East 461 531 33,000  Level Cleveland Center
Thu 08:13:09 PM 41.8625 -82.6286 106° East 452 520 33,000  Level Cleveland Center
Thu 08:14:11 PM 41.8169 -82.4361 108° East 453 521 33,000  Level Cleveland Center
Thu 08:15:13 PM 41.7797 -82.2731 107° East 457 526 33,000  Level Cleveland Center
Thu 08:16:15 PM 41.7433 -82.1161 107° East 461 531 33,000  Level Cleveland Center
Thu 08:17:17 PM 41.7047 -81.9525 107° East 457 526 33,000  Level Cleveland Center
Thu 08:18:19 PM 41.6594 -81.7597 107° East 458 527 33,000  Level Cleveland Center
Thu 08:19:21 PM 41.6203 -81.5947 108° East 458 527 33,000  Level Cleveland Center
Thu 08:20:23 PM 41.5811 -81.4292 108° East 459 528 33,000  Level Cleveland Center
Thu 08:21:25 PM 41.5411 -81.2658 108° East 457 526 33,000  Level Cleveland Center
Thu 08:22:28 PM 41.5114 -81.1014 104° East 452 520 33,000  Level Cleveland Center
Thu 08:23:30 PM 41.4967 -80.9367 97° East 442 509 33,000  Level Cleveland Center
Thu 08:24:32 PM 41.4817 -80.7694 97° East 446 513 33,000  Level Cleveland Center
Thu 08:25:34 PM 41.4656 -80.6017 97° East 452 520 33,000  Level Cleveland Center
Thu 08:26:36 PM 41.4483 -80.4064 97° East 451 519 33,000  Level Cleveland Center
Thu 08:27:38 PM 41.4347 -80.2594 97° East 455 524 33,000  Level Cleveland Center
Thu 08:28:40 PM 41.4183 -80.0936 97° East 453 521 33,000  Level Cleveland Center
Thu 08:29:42 PM 41.4017 -79.9172 97° East 456 525 33,000  Level Cleveland Center
Thu 08:30:44 PM 41.3825 -79.7169 97° East 458 527 33,000  Level Cleveland Center
Thu 08:31:46 PM 41.3661 -79.5581 98° East 453 521 33,000  Level Cleveland Center
Thu 08:32:48 PM 41.3489 -79.3894 98° East 457 526 33,000  Level Cleveland Center
Thu 08:33:50 PM 41.3219 -79.2256 102° East 451 519 33,000  Level Cleveland Center
Thu 08:34:52 PM 41.2361 -79.1039 133° Southeast 463 533 33,000  Level Cleveland Center
Thu 08:35:55 PM 41.1275 -78.9667 136° Southeast 464 534 33,000  Level Cleveland Center
Thu 08:36:57 PM 41.0914 -78.8125 107° East 449 517 33,000  Level Cleveland Center
Thu 08:37:59 PM 41.1139 -78.6517 79° East 441 507 33,000  Level Cleveland Center
Thu 08:39:01 PM 41.1458 -78.4931 75° East 444 511 33,000  Level Cleveland Center
Thu 08:39:48 PM 41.1753 -78.3494 75° East 467 537 33,000  Level New York Center
Thu 08:40:49 PM 41.2039 -78.1953 76° East 452 520 33,000  Level New York Center
Thu 08:41:50 PM 41.2033 -78.0325 90° East 434 499 33,000  Level New York Center
Thu 08:42:48 PM 41.1800 -77.8700 101° East 440 506 33,000  Level New York Center
Thu 08:43:48 PM 41.1603 -77.7081 99° East 445 512 33,000  Level New York Center
Thu 08:44:48 PM 41.1383 -77.5458 100° East 450 518 33,000 -248 Level New York Center
Thu 08:45:49 PM 41.1186 -77.3786 99° East 450 518 32,500 -1,190 Descending New York Center
Thu 08:46:49 PM 41.0978 -77.2306 101° East 450 518 30,600 -1,967 Descending New York Center
Thu 08:47:51 PM 41.0756 -77.0633 100° East 450 518 28,500 -2,067 Descending New York Center
Thu 08:48:48 PM 41.0528 -76.9017 101° East 450 518 26,500 -2,256 Descending New York Center
Thu 08:49:48 PM 41.0300 -76.7317 100° East 444 511 24,100 -2,200 Descending New York Center
Thu 08:50:48 PM 41.0000 -76.5833 105° East 426 490 22,100 -1,950 Descending New York Center
Thu 08:51:48 PM 40.9653 -76.4403 108° East 415 478 20,200 -1,636 Descending New York Center
Thu 08:52:49 PM 40.9378 -76.3142 106° East 409 471 18,800 -1,488 Descending New York Center
Thu 08:53:49 PM 40.9031 -76.1631 107° East 394 453 17,200 -1,438 Descending New York Center
Thu 08:54:50 PM 40.8694 -76.0314 109° East 381 438 15,900 -1,289 Descending New York Center
Thu 08:55:50 PM 40.8414 -75.9114 107° East 381 438 14,600 -1,300 Descending New York Center
Thu 08:56:50 PM 40.8094 -75.7856 109° East 371 427 13,300 -814 Descending New York Center
Thu 08:57:48 PM 40.7756 -75.6461 108° East 366 421 13,000 -153 Descending New York Center
Thu 08:58:48 PM 40.7453 -75.5233 108° East 361 415 13,000 -49 Level New York Center
Thu 08:59:50 PM 40.7147 -75.3953 107° East 361 415 12,900 -492 Descending New York Center
Thu 09:00:50 PM 40.6906 -75.2706 104° East 361 415 12,000 -850 Descending New York Center
Thu 09:01:50 PM 40.6656 -75.1594 106° East 353 406 11,200 -814 Descending New York Center
Thu 09:02:48 PM 40.6044 -75.0597 129° Southeast 339 390 10,400 -610 Descending New York Center
Thu 09:03:48 PM 40.5503 -74.9472 122° Southeast 339 390 10,000 -197 Descending New York Center
Thu 09:04:50 PM 40.5164 -74.8386 112° Southeast 327 376 10,000 -197 Level New York Center
Thu 09:05:50 PM 40.4800 -74.7464 117° Southeast 299 344 9,600 -504 Descending New York Center
Thu 09:06:49 PM 40.4306 -74.6672 129° Southeast 281 323 9,000 -712 Descending New York Center
Thu 09:07:48 PM 40.3831 -74.5908 129° Southeast 273 314 8,200 -500 Descending New York Center
Thu 09:08:49 PM 40.3883 -74.4931 86° East 253 291 8,000 -248 Descending New York Center
Thu 09:09:49 PM 40.4014 -74.4067 79° East 258 297 7,700 -496 Descending New York Center
Thu 09:10:50 PM 40.4317 -74.3075 68° East 258 297 7,000 -347 Descending New York Center
Thu 09:11:50 PM 40.4669 -74.2356 57° Northeast 258 297 7,000 -305 Level New York Center
Thu 09:12:48 PM 40.5111 -74.1478 56° Northeast 264 304 6,400 -1,109 Descending New York Center
Thu 09:13:49 PM 40.5622 -74.1092 30° Northeast 242 278 4,800 -1,180 Descending New York Center
Thu 09:14:50 PM 40.6319 -74.0772 19° North 236 272 4,000 -397 Descending New York Center
Thu 09:15:50 PM 40.6911 -74.0525 18° North 236 272 4,000  Level New York Center
Thu 09:16:48 PM 40.7569 -74.0036 29° Northeast 236 272 4,000 42 Level New York Center
Thu 09:18:14 PM 40.8500 -73.9500 24° Northeast 241 277 4,100 -82 Climbing New York TRACON
Thu 09:19:14 PM 40.8833 -73.9000 49° Northeast 181 208 3,800 -900 Descending New York TRACON
Thu 09:20:14 PM 40.9000 -73.8500 66° East 190 219 2,300 -950 Descending New York TRACON
Thu 09:21:14 PM 40.8667 -73.8167 143° Southeast 180 207 1,900 -700 Descending New York TRACON
Thu 09:22:14 PM 40.8167 -73.8333 194° South 146 168 900 -842 Descending New York TRACON
Thu 09:23:08 PM 40.7833 -73.8667 217° Southwest 140 161 300 -667 Descending New York TRACON
Thu 09:25:00 PM 40.7772 -73.8726 201° Southwest  Level Estimated
Thu 09:32:00 PM 40.7772 -73.8726 201° Southwest  Level Estimated

Login

Don't have an account? Register now (free) for customized features, flight alerts, and more!